Time;durP1;ratioP1;P1;durP2;ratioP2;P2;SDS_P1;SDS_P2;PMS_P1;PMS_P2;Temp;Humidity;BMP_temperature;BMP_pressure;BME280_temperature;BME280_humidity;BME280_pressure;Samples;Min_cycle;Max_cycle;Signal;HPM_P1;HPM_P2
2022/03/01 00:09:13;;;;;;;282.70;108.20;;;;;;;-4.96;68.57;100536.64;433917;1268;108925;-40
2022/03/01 00:19:20;;;;;;;267.50;101.20;;;;;;;-5.10;68.95;100537.02;433855;1268;98562;-40
2022/03/01 00:29:27;;;;;;;214.90;93.30;;;;;;;-5.17;69.15;100528.48;432878;1269;111085;-42
2022/03/01 00:39:35;;;;;;;205.40;99.50;;;;;;;-5.14;69.20;100521.11;433715;1268;108763;-43
2022/03/01 00:49:42;;;;;;;186.90;83.00;;;;;;;-5.08;69.25;100519.72;433714;1268;97426;-41
2022/03/01 00:59:49;;;;;;;168.20;80.30;;;;;;;-4.90;69.59;100519.76;433802;1268;108769;-43
2022/03/01 01:09:56;;;;;;;176.40;79.40;;;;;;;-4.74;69.56;100526.98;433162;1270;97687;-40
2022/03/01 01:20:04;;;;;;;290.20;108.00;;;;;;;-4.90;69.60;100532.50;433719;1267;111211;-39
2022/03/01 01:30:12;;;;;;;;;;;;;;;-5.08;69.55;100535.40;433880;1268;108770;-41
2022/03/01 01:40:23;;;;;;;232.90;95.20;;;;;;;-5.39;69.75;100538.96;433884;1268;107783;-41
2022/03/01 01:50:32;;;;;;;211.00;82.70;;;;;;;-5.57;69.93;100536.98;433741;1268;96695;-40
2022/03/01 02:00:37;;;;;;;166.10;78.70;;;;;;;-5.70;69.69;100527.56;433776;1268;110372;-42
2022/03/01 02:10:53;;;;;;;183.50;75.60;;;;;;;-5.69;70.13;100519.05;434039;1259;108788;31
2022/03/01 02:21:01;;;;;;;176.60;73.50;;;;;;;-5.55;70.15;100512.31;431764;1273;97909;-40
2022/03/01 02:31:09;;;;;;;158.30;73.40;;;;;;;-5.55;70.18;100500.63;432274;1271;109292;-40
2022/03/01 02:41:16;;;;;;;156.80;74.60;;;;;;;-5.40;70.58;100491.05;432172;1271;97934;-42
2022/03/01 02:51:24;;;;;;;168.20;73.20;;;;;;;-5.28;70.53;100491.23;432249;1273;111076;-39
2022/03/01 03:01:32;;;;;;;247.50;96.60;;;;;;;-5.29;70.53;100484.46;431992;1273;109200;-40
2022/03/01 03:21:44;;;;;;;247.70;102.00;;;;;;;-5.77;70.72;100480.15;432386;1272;111102;-40
2022/03/01 03:41:58;;;;;;;176.40;79.80;;;;;;;-6.04;70.81;100471.64;432379;1273;97535;-40
2022/03/01 03:52:07;;;;;;;158.10;72.50;;;;;;;-6.00;70.86;100475.21;432249;1271;108918;-40
2022/03/01 04:02:14;;;;;;;145.10;69.30;;;;;;;-6.04;70.77;100468.54;432295;1272;97910;-40
2022/03/01 04:12:22;;;;;;;142.60;65.40;;;;;;;-6.01;70.98;100461.55;431826;1273;110944;-42
2022/03/01 04:32:36;;;;;;;141.40;64.40;;;;;;;-6.00;71.06;100433.64;432413;1271;97939;-41
2022/03/01 04:42:45;;;;;;;140.20;66.40;;;;;;;-5.92;71.27;100432.17;432270;1273;108889;-40
2022/03/01 04:52:52;;;;;;;124.30;60.10;;;;;;;-5.96;71.08;100424.67;432447;1271;96699;-40
2022/03/01 05:03:00;;;;;;;143.50;64.20;;;;;;;-5.96;71.41;100419.21;432400;1273;111266;-40
2022/03/01 05:13:10;;;;;;;142.10;65.60;;;;;;;-5.95;71.19;100419.29;432192;1271;108791;-40
2022/03/01 05:23:18;;;;;;;134.60;63.30;;;;;;;-6.19;71.07;100424.17;432280;1271;97959;-40
2022/03/01 05:33:26;;;;;;;165.20;75.70;;;;;;;-6.24;71.19;100427.15;432343;1273;108808;-41
2022/03/01 05:43:33;;;;;;;157.80;73.10;;;;;;;-6.21;71.25;100430.10;432304;1272;97113;-40
2022/03/01 05:53:41;;;;;;;192.30;84.30;;;;;;;-6.21;71.30;100423.91;432404;1271;110977;-40
2022/03/01 06:03:49;;;;;;;166.50;77.80;;;;;;;-6.02;71.55;100432.06;432395;1272;109123;-42
2022/03/01 06:13:56;;;;;;;198.60;85.90;;;;;;;-5.83;71.59;100431.89;432398;1271;97965;-39
2022/03/01 06:44:20;;;;;;;332.70;133.70;;;;;;;-3.52;72.36;100441.33;432365;1271;97899;-41
2022/03/01 06:54:28;;;;;;;357.80;135.20;;;;;;;-2.47;71.65;100438.84;432371;1273;111134;-39
2022/03/01 07:04:35;;;;;;;273.90;115.60;;;;;;;-1.76;71.77;100439.14;432411;1271;109038;-42
2022/03/01 07:14:42;;;;;;;170.50;77.30;;;;;;;-1.18;71.29;100440.90;432334;1271;97056;-40
2022/03/01 07:24:49;;;;;;;172.80;78.80;;;;;;;-0.97;71.20;100443.04;432267;1271;112437;-40
2022/03/01 07:34:57;;;;;;;134.90;65.70;;;;;;;-0.07;71.21;100430.93;432424;1271;108720;-41
2022/03/01 07:45:05;;;;;;;150.10;68.20;;;;;;;0.43;70.96;100433.26;432431;1271;97925;-40
2022/03/01 07:55:13;;;;;;;144.40;68.50;;;;;;;1.10;71.15;100429.09;432293;1272;110683;-40
2022/03/01 08:05:20;;;;;;;144.10;67.80;;;;;;;1.47;70.72;100428.42;432241;1271;107639;-42
2022/03/01 08:15:29;;;;;;;141.20;65.20;;;;;;;2.28;70.72;100423.06;432308;1273;108943;-42
2022/03/01 08:25:35;;;;;;;135.70;64.10;;;;;;;2.85;70.14;100413.42;432328;1271;96857;-40
2022/03/01 08:35:42;;;;;;;133.60;61.10;;;;;;;3.11;69.41;100402.17;432278;1273;97558;-40
2022/03/01 08:45:51;;;;;;;76.50;39.20;;;;;;;3.18;68.67;100395.59;432288;1271;110199;-40
2022/03/01 08:55:58;;;;;;;68.90;31.80;;;;;;;2.71;67.95;100386.41;432464;1271;108806;-41
2022/03/01 09:06:06;;;;;;;46.80;23.20;;;;;;;2.67;67.29;100375.46;432214;1273;108886;-44
2022/03/01 09:16:13;;;;;;;32.40;16.10;;;;;;;2.45;65.78;100373.77;432312;1271;96757;-41
2022/03/01 09:26:20;;;;;;;26.60;14.20;;;;;;;2.28;64.98;100378.39;427890;1273;5737381;-41
2022/03/01 09:36:28;;;;;;;31.00;14.30;;;;;;;2.20;63.44;100370.19;432453;1271;108760;-41
2022/03/01 09:46:35;;;;;;;30.60;16.10;;;;;;;2.26;63.48;100358.08;432524;1271;97904;-41
2022/03/01 09:56:52;;;;;;;30.10;14.60;;;;;;;2.44;62.74;100356.98;432340;1272;109929;-40
2022/03/01 10:07:03;;;;;;;24.40;13.20;;;;;;;2.54;61.62;100336.82;432509;1271;109263;-43
2022/03/01 10:17:18;;;;;;;28.60;13.20;;;;;;;2.52;60.91;100322.80;432402;1271;108198;-40
2022/03/01 10:27:27;;;;;;;24.30;11.70;;;;;;;2.79;60.25;100308.96;432349;1271;97423;-43
2022/03/01 10:37:37;;;;;;;19.80;8.60;;;;;;;2.77;58.21;100293.91;432417;1271;111225;-44
2022/03/01 10:57:58;;;;;;;23.70;12.00;;;;;;;3.01;56.49;100265.61;432471;1271;108819;-43
2022/03/01 11:08:08;;;;;;;18.00;8.70;;;;;;;3.12;55.78;100247.20;432295;1271;96675;-41
2022/03/01 11:38:45;;;;;;;12.60;5.60;;;;;;;3.47;51.70;100219.68;432476;1271;109412;-40
2022/03/01 11:48:51;;;;;;;10.00;5.60;;;;;;;3.60;50.92;100201.38;432386;1274;97531;-40
2022/03/01 11:59:04;;;;;;;9.90;4.90;;;;;;;3.74;49.97;100180.45;431990;1274;111165;-43
2022/03/01 12:09:13;;;;;;;11.20;5.20;;;;;;;3.75;49.02;100168.34;432395;1271;108718;-40
2022/03/01 12:19:22;;;;;;;8.10;4.20;;;;;;;3.86;49.85;100157.63;432345;1273;107830;-41
2022/03/01 12:29:29;;;;;;;;;;;;;;;3.95;48.27;100142.27;432556;1271;97016;-43
2022/03/01 12:39:38;;;;;;;12.50;4.80;;;;;;;4.00;46.84;100131.52;432404;1271;110939;-41
2022/03/01 12:49:46;;;;;;;10.50;4.80;;;;;;;3.88;45.73;100119.11;432484;1272;108637;-44
2022/03/01 12:59:53;;;;;;;6.40;4.00;;;;;;;4.01;45.17;100102.60;432160;1273;109061;-42
2022/03/01 13:10:01;;;;;;;9.30;3.90;;;;;;;3.93;43.69;100091.32;432372;1271;96687;-41
2022/03/01 13:20:08;;;;;;;6.40;3.00;;;;;;;3.88;43.73;100078.04;432210;1273;97821;-42
2022/03/01 13:30:15;;;;;;;5.80;3.20;;;;;;;3.81;42.66;100062.61;432513;1271;108470;-43
2022/03/01 13:40:23;;;;;;;8.60;5.10;;;;;;;3.75;42.63;100044.79;432361;1273;108920;-41
2022/03/01 13:50:33;;;;;;;9.70;4.20;;;;;;;3.75;41.99;100029.80;432107;1273;108825;-41
2022/03/01 14:00:42;;;;;;;9.60;4.30;;;;;;;3.80;41.78;100013.31;432317;1271;97205;-41
2022/03/01 14:10:48;;;;;;;;;;;;;;;3.76;41.40;100002.15;432281;1273;111067;-43
2022/03/01 14:20:57;;;;;;;9.90;6.10;;;;;;;3.81;41.64;99989.30;432317;1271;108591;-41
2022/03/01 14:31:01;;;;;;;13.00;6.00;;;;;;;3.78;41.84;99976.92;432237;1272;108466;-41
2022/03/01 14:41:09;;;;;;;17.90;7.00;;;;;;;3.67;42.18;99968.73;432174;1271;97501;-40
2022/03/01 14:51:15;;;;;;;15.90;6.80;;;;;;;3.67;42.15;99956.52;432308;1272;110065;-40
2022/03/01 15:01:22;;;;;;;13.20;6.50;;;;;;;3.58;41.88;99950.42;432408;1273;107852;-40
2022/03/01 15:11:30;;;;;;;15.20;7.20;;;;;;;3.47;42.71;99940.08;431668;1271;109115;-42
2022/03/01 15:21:37;;;;;;;15.50;7.60;;;;;;;3.33;42.43;99925.23;432255;1273;97902;-41
2022/03/01 15:31:44;;;;;;;17.40;7.20;;;;;;;3.14;42.18;99933.38;432322;1271;97358;-40
2022/03/01 15:41:52;;;;;;;15.40;6.40;;;;;;;2.96;42.86;99938.79;432522;1272;111064;-40
2022/03/01 15:51:59;;;;;;;16.10;7.70;;;;;;;2.73;42.72;99937.16;432453;1271;108892;-43
2022/03/01 16:02:11;;;;;;;19.50;8.80;;;;;;;2.50;43.03;99936.98;432489;1272;109093;-40
2022/03/01 16:12:21;;;;;;;22.50;10.20;;;;;;;2.23;43.72;99940.52;431846;1273;97907;-43
2022/03/01 16:32:35;;;;;;;33.50;12.90;;;;;;;1.63;44.52;99940.77;432324;1271;108802;-40
2022/03/01 16:42:42;;;;;;;33.40;15.40;;;;;;;1.22;45.09;99948.52;432250;1271;108621;-41
2022/03/01 16:52:49;;;;;;;44.50;19.40;;;;;;;0.90;45.83;99948.77;432168;1271;97933;-42
2022/03/01 17:13:03;;;;;;;72.10;27.60;;;;;;;0.40;47.26;99951.72;432197;1272;111024;-41
2022/03/01 17:23:10;;;;;;;60.40;26.90;;;;;;;0.18;47.77;99948.77;432294;1273;108838;-40
2022/03/01 17:33:17;;;;;;;78.70;28.80;;;;;;;-0.03;48.63;99945.91;432334;1271;109155;-39
2022/03/01 17:43:24;;;;;;;73.90;28.10;;;;;;;-0.25;49.29;99945.55;432390;1271;96664;-42
2022/03/01 17:53:31;;;;;;;83.90;29.90;;;;;;;-0.54;49.97;99944.09;432394;1273;111260;-41
2022/03/01 18:03:39;;;;;;;107.30;34.50;;;;;;;-0.85;50.55;99951.02;432427;1271;108662;-41
2022/03/01 18:13:47;;;;;;;111.00;41.60;;;;;;;-1.10;51.42;99945.44;432529;1271;97935;-40
2022/03/01 18:23:54;;;;;;;138.50;47.90;;;;;;;-1.30;51.78;99939.60;432284;1273;111090;-41
2022/03/01 18:34:02;;;;;;;143.20;50.10;;;;;;;-1.51;52.48;99941.56;432504;1271;108693;-40
2022/03/01 18:54:16;;;;;;;168.80;59.50;;;;;;;-1.88;53.62;99937.86;432368;1273;111023;-42
2022/03/01 19:04:24;;;;;;;145.80;53.80;;;;;;;-2.06;54.26;99934.31;432414;1271;108779;-40
2022/03/01 19:24:37;;;;;;;225.70;73.60;;;;;;;-2.39;55.15;99931.45;432506;1271;111054;-41
2022/03/01 19:34:44;;;;;;;243.00;81.90;;;;;;;-2.55;55.35;99933.00;432396;1271;108846;-41
2022/03/01 19:44:52;;;;;;;238.80;83.70;;;;;;;-2.65;55.93;99927.20;432271;1273;97516;-41
2022/03/01 19:54:58;;;;;;;247.20;85.10;;;;;;;-2.79;56.44;99925.79;432445;1271;111044;-40
2022/03/01 20:05:08;;;;;;;232.90;78.40;;;;;;;-2.91;56.75;99927.04;432416;1271;108847;-42
2022/03/01 20:15:16;;;;;;;249.40;84.30;;;;;;;-3.03;57.10;99926.05;432498;1272;97539;-42
2022/03/01 20:25:25;;;;;;;245.00;82.00;;;;;;;-3.17;57.60;99921.48;432478;1271;111127;-41
2022/03/01 20:35:32;;;;;;;229.80;79.50;;;;;;;-3.30;58.18;99920.90;432383;1269;107680;-40
2022/03/01 20:45:38;;;;;;;235.20;79.50;;;;;;;-3.46;58.74;99914.59;432406;1271;97379;-42
2022/03/01 20:55:48;;;;;;;236.50;85.70;;;;;;;-3.60;58.83;99905.96;432383;1271;96688;-42
2022/03/01 21:05:55;;;;;;;256.80;86.40;;;;;;;-3.66;59.24;99903.86;432326;1271;109700;-40
2022/03/01 21:16:03;;;;;;;244.10;85.00;;;;;;;-3.81;59.31;99899.75;432332;1271;97951;-40
2022/03/01 21:36:16;;;;;;;254.20;85.50;;;;;;;-4.06;59.93;99883.70;432408;1271;108791;-43
2022/03/01 21:46:23;;;;;;;216.30;88.20;;;;;;;-4.08;60.03;99878.48;432298;1271;97906;-41
2022/03/01 21:56:27;;;;;;;204.80;82.80;;;;;;;-4.01;60.39;99874.06;432434;1271;108512;-43
2022/03/01 22:06:35;;;;;;;276.50;98.40;;;;;;;-4.00;60.62;99864.83;432329;1271;96682;-41
2022/03/01 22:26:49;;;;;;;285.00;97.30;;;;;;;-4.29;60.79;99848.45;432424;1271;107446;-40
2022/03/01 22:36:57;;;;;;;274.50;88.50;;;;;;;-4.53;61.02;99843.61;432459;1273;97976;-43
2022/03/01 22:47:03;;;;;;;258.60;87.90;;;;;;;-4.77;61.04;99833.66;431919;1273;96667;-40
2022/03/01 22:57:09;;;;;;;276.90;91.00;;;;;;;-4.93;61.46;99831.98;432381;1271;108874;-40
2022/03/01 23:07:30;;;;;;;256.40;93.20;;;;;;;-4.89;61.84;99824.19;432265;1270;97911;-40
2022/03/01 23:17:38;;;;;;;208.20;82.20;;;;;;;-4.77;62.06;99811.33;432404;1271;111523;-40
2022/03/01 23:27:45;;;;;;;182.50;74.80;;;;;;;-4.55;62.63;99812.41;432343;1273;108843;-40
2022/03/01 23:37:52;;;;;;;296.80;99.00;;;;;;;-4.42;62.58;99808.03;432263;1272;98009;-40
2022/03/01 23:58:08;;;;;;;260.60;92.80;;;;;;;-4.83;62.97;99795.70;432379;1272;107922;-40
